CYYZ/YYZ METAR and TAF weather

Enter ICAO airport designator
Station Type Date Time Source
CYYZ METAR 2017/05/23 03:00 UTC NOAA

CYYZ 230300Z 22006KT 15SM SKC 13/08 A2995 RMK SLP146


Station Type Date Time Source
CYYZ Decoded METAR 2017/05/23 03:00 UTC NOAA

Toronto Pearson Int'L. Ont., Canada (CYYZ) 43-40N 079-38W 173M
May 22, 2017 - 11:00 PM EDT / 2017.05.23 0300 UTC
Wind: from the SW (220 degrees) at 7 MPH (6 KT):0
Visibility: 15 mile(s):0
Sky conditions: clear
Temperature: 55 F (13 C)
Dew Point: 46 F (8 C)
Relative Humidity: 71%
Pressure (altimeter): 29.95 in. Hg (1014 hPa)
ob: CYYZ 230300Z 22006KT 15SM SKC 13/08 A2995 RMK SLP146
cycle: 3

Station Type Date Time Source
CYYZ TAF 2017/05/23 03:42 UTC NOAA

TAF CYYZ 230238Z 2303/2406 24008KT P6SM SKC
FM230800 VRB03KT P6SM BKN060
BECMG 2312/2314 24007KT
FM231700 21012KT P6SM BKN040 BKN110
TEMPO 2318/2321 P6SM -SHRA
FM232100 18006KT P6SM SCT060 BKN120
BECMG 2322/2324 10007KT
BECMG 2404/2406 06005KT
RMK NXT FCST BY 230600Z


Example: see airport list